createdAt,value
2022-11-12T00:03:25.226Z,9.430497
2022-11-12T00:04:51.168Z,9.430497
2022-11-12T00:04:57.520Z,9.430497
2022-11-12T00:05:56.319Z,9.430456
2022-11-12T00:11:33.467Z,9.430393
2022-11-12T00:12:14.365Z,9.430393
2022-11-12T00:12:35.739Z,9.430457
2022-11-12T00:15:00.680Z,9.430459
2022-11-12T00:17:50.939Z,9.430459
2022-11-12T00:17:54.010Z,9.430459
2022-11-12T00:20:16.936Z,9.430367
2022-11-12T00:20:20.460Z,9.430367
2022-11-12T00:22:40.825Z,9.430373
2022-11-12T00:25:38.408Z,9.430373
2022-11-12T00:28:36.211Z,9.430373
2022-11-12T00:28:38.667Z,9.430373
2022-11-12T00:29:40.001Z,9.430367
2022-11-12T00:32:46.152Z,9.430366
2022-11-12T00:33:13.033Z,9.430306
2022-11-12T00:35:38.550Z,9.430300
2022-11-12T00:37:09.577Z,9.430300
2022-11-12T00:38:34.216Z,9.430300
2022-11-12T00:39:57.562Z,9.430300
2022-11-12T00:41:24.361Z,9.430300
2022-11-12T00:42:44.343Z,9.430300
2022-11-12T00:47:30.468Z,9.430319
2022-11-12T00:47:37.829Z,9.430319
2022-11-12T00:49:53.989Z,9.430362
2022-11-12T00:49:56.929Z,9.430362
2022-11-12T00:52:16.954Z,9.430361
2022-11-12T00:53:55.382Z,9.430361
2022-11-12T01:07:45.419Z,9.430381
2022-11-12T01:12:22.549Z,9.430384
2022-11-12T01:16:54.918Z,9.430396
2022-11-12T01:16:56.927Z,9.430396
2022-11-12T01:19:24.324Z,9.430327
2022-11-12T01:19:26.088Z,9.430327
2022-11-12T01:20:28.300Z,9.430392
2022-11-12T01:21:29.013Z,9.430449
2022-11-12T01:26:56.059Z,9.430407
2022-11-12T01:32:12.893Z,9.430384
2022-11-12T01:32:19.357Z,9.430384
2022-11-12T01:39:06.352Z,9.430387
2022-11-12T01:39:08.886Z,9.430387
2022-11-12T01:40:09.800Z,9.430413
2022-11-12T01:42:31.763Z,9.430414
2022-11-12T01:42:35.067Z,9.430414
2022-11-12T01:47:48.632Z,9.430439
2022-11-12T01:47:52.594Z,9.430439
2022-11-12T01:48:50.164Z,9.430330
2022-11-12T01:49:53.358Z,9.430361
2022-11-12T01:52:15.049Z,9.430392
2022-11-12T01:53:42.077Z,9.430392
2022-11-12T01:55:07.273Z,9.430392
2022-11-12T01:59:40.276Z,9.430392
2022-11-12T02:01:03.899Z,9.430392
2022-11-12T02:01:05.449Z,9.430392
2022-11-12T02:02:05.432Z,9.430478
2022-11-12T02:03:06.354Z,9.430429
2022-11-12T02:04:07.537Z,9.430422
2022-11-12T02:05:05.450Z,9.430382
2022-11-12T02:06:05.879Z,9.430383
2022-11-12T02:07:06.414Z,9.430392
2022-11-12T02:08:05.717Z,9.430366
2022-11-12T02:09:05.846Z,9.430389
2022-11-12T02:10:08.037Z,9.430382
2022-11-12T02:12:29.406Z,9.430390
2022-11-12T02:12:36.881Z,9.430390
2022-11-12T02:13:36.192Z,9.430464
2022-11-12T02:14:33.161Z,9.430465
2022-11-12T02:15:30.975Z,9.430428
2022-11-12T02:16:32.610Z,9.430383
2022-11-12T02:17:31.473Z,9.430347
2022-11-12T02:19:55.849Z,9.430309
2022-11-12T02:19:57.382Z,9.430309
2022-11-12T02:20:58.395Z,9.430410
2022-11-12T02:21:57.312Z,9.430437
2022-11-12T02:22:57.536Z,9.430457
2022-11-12T02:23:58.457Z,9.430501
2022-11-12T02:24:58.736Z,9.430462
2022-11-12T02:26:02.872Z,9.430532
2022-11-12T02:26:58.222Z,9.430322
2022-11-12T02:27:57.845Z,9.430210
2022-11-12T02:28:57.289Z,9.430461
2022-11-12T02:29:57.221Z,9.430332
2022-11-12T02:30:57.863Z,9.430436
2022-11-12T02:31:57.339Z,9.430449
2022-11-12T02:33:29.643Z,9.430389
2022-11-12T02:34:29.663Z,9.430344
2022-11-12T02:35:31.409Z,9.430330
2022-11-12T02:36:29.661Z,9.430365
2022-11-12T02:37:31.667Z,9.430356
2022-11-12T02:37:57.379Z,9.430350
2022-11-12T02:39:29.661Z,9.430292
2022-11-12T02:39:57.303Z,9.430305
2022-11-12T02:41:31.622Z,9.430328
2022-11-12T02:42:29.486Z,9.430346
2022-11-12T02:43:30.860Z,9.430328
2022-11-12T02:43:57.121Z,9.430301
2022-11-12T02:44:57.061Z,9.430315
2022-11-12T02:45:57.068Z,9.430272
2022-11-12T02:46:57.046Z,9.430332
2022-11-12T02:47:59.106Z,9.430295
2022-11-12T02:48:59.745Z,9.430300
2022-11-12T02:49:57.013Z,9.430351
2022-11-12T02:50:57.875Z,9.430339
2022-11-12T02:51:59.463Z,9.430364
2022-11-12T02:52:56.990Z,9.430311
2022-11-12T02:53:56.967Z,9.430356
2022-11-12T02:54:57.538Z,9.430383
2022-11-12T02:55:59.100Z,9.430408
2022-11-12T02:56:58.446Z,9.430390
2022-11-12T02:58:01.751Z,9.430401
2022-11-12T02:58:56.918Z,9.430340
2022-11-12T02:59:56.918Z,9.430387
2022-11-12T03:00:56.982Z,9.430331
2022-11-12T03:01:57.878Z,9.430285
2022-11-12T03:02:56.955Z,9.430271
2022-11-12T03:05:18.923Z,9.430389
2022-11-12T03:05:23.594Z,9.430389
2022-11-12T03:06:20.614Z,9.430336
2022-11-12T03:07:20.846Z,9.430344
2022-11-12T03:08:20.694Z,9.430320
2022-11-12T03:09:20.891Z,9.430324
2022-11-12T03:10:25.098Z,9.430367
2022-11-12T03:11:20.526Z,9.430303
2022-11-12T03:12:20.452Z,9.430352
2022-11-12T03:13:20.483Z,9.430351
2022-11-12T03:14:20.835Z,9.430356
2022-11-12T03:15:20.414Z,9.430257
2022-11-12T03:16:21.196Z,9.430281
2022-11-12T03:17:20.644Z,9.430343
2022-11-12T03:18:25.507Z,9.430388
2022-11-12T03:20:44.899Z,9.430456
2022-11-12T03:22:11.223Z,9.430456
2022-11-12T03:22:12.856Z,9.430456
2022-11-12T03:23:12.906Z,9.430335
2022-11-12T03:24:13.660Z,9.430291
2022-11-12T03:25:17.261Z,9.430330
2022-11-12T03:27:34.707Z,9.430408
2022-11-12T03:29:03.570Z,9.430408
2022-11-12T03:29:05.193Z,9.430408
2022-11-12T03:30:05.068Z,9.430320
2022-11-12T03:31:05.561Z,9.430300
2022-11-12T03:32:05.888Z,9.430332
2022-11-12T03:33:09.924Z,9.430320
2022-11-12T03:34:07.644Z,9.430369
2022-11-12T03:36:24.997Z,9.430368
2022-11-12T03:36:26.530Z,9.430368
2022-11-12T03:37:26.483Z,9.430336
2022-11-12T03:38:29.436Z,9.430333
2022-11-12T03:39:28.053Z,9.430330
2022-11-12T03:40:26.446Z,9.430324
2022-11-12T03:41:26.582Z,9.430352
2022-11-12T03:42:26.413Z,9.430368
2022-11-12T03:43:26.501Z,9.430361
2022-11-12T03:45:47.007Z,9.430402
2022-11-12T03:45:49.375Z,9.430402
2022-11-12T03:46:48.513Z,9.430335
2022-11-12T03:47:51.521Z,9.430328
2022-11-12T03:48:48.447Z,9.430368
2022-11-12T03:49:49.326Z,9.430378
2022-11-12T03:50:48.462Z,9.430413
2022-11-12T03:53:08.957Z,9.430387
2022-11-12T03:53:10.502Z,9.430387
2022-11-12T03:54:10.779Z,9.430405
2022-11-12T03:55:10.576Z,9.430338
2022-11-12T03:56:12.673Z,9.430328
2022-11-12T03:58:32.479Z,9.430325
2022-11-12T03:58:33.994Z,9.430325
2022-11-12T04:00:32.982Z,9.430393
2022-11-12T04:00:34.466Z,9.430393
2022-11-12T04:01:35.561Z,9.430387
2022-11-12T04:02:35.578Z,9.430346
2022-11-12T04:03:37.666Z,9.430378
2022-11-12T04:04:34.454Z,9.430353
2022-11-12T04:05:34.437Z,9.430409
2022-11-12T04:06:34.577Z,9.430397
2022-11-12T04:07:35.278Z,9.430392
2022-11-12T04:08:35.171Z,9.430402
2022-11-12T04:09:34.461Z,9.430326
2022-11-12T04:10:34.352Z,9.430331
2022-11-12T04:11:34.347Z,9.430363
2022-11-12T04:12:36.427Z,9.430363
2022-11-12T04:15:02.741Z,9.430333
2022-11-12T04:16:01.323Z,9.430297
2022-11-12T04:17:01.362Z,9.430334
2022-11-12T04:18:01.295Z,9.430356
2022-11-12T04:20:22.453Z,9.430337
2022-11-12T04:20:23.929Z,9.430337
2022-11-12T04:21:24.263Z,9.430301
2022-11-12T04:22:27.975Z,9.430332
2022-11-12T04:23:28.263Z,9.430370
2022-11-12T04:24:28.167Z,9.430358
2022-11-12T04:25:24.272Z,9.430311
2022-11-12T04:26:23.885Z,9.430352
2022-11-12T04:27:24.339Z,9.430333
2022-11-12T04:28:26.899Z,9.430337
2022-11-12T04:29:27.080Z,9.430377
2022-11-12T04:30:28.294Z,9.430316
2022-11-12T04:31:26.564Z,9.430313
2022-11-12T04:32:28.999Z,9.430351
2022-11-12T04:33:27.612Z,9.430370
2022-11-12T04:36:31.681Z,9.430421
2022-11-12T04:36:37.521Z,9.430421
2022-11-12T04:37:36.425Z,9.430358
2022-11-12T04:38:39.052Z,9.430335
2022-11-12T04:39:35.108Z,9.430316
2022-11-12T04:40:34.989Z,9.430365
2022-11-12T04:41:34.821Z,9.430369
2022-11-12T04:42:35.932Z,9.430378
2022-11-12T04:43:35.245Z,9.430343
2022-11-12T04:44:33.323Z,9.430380
2022-11-12T04:45:34.822Z,9.430367
2022-11-12T04:46:34.905Z,9.430362
2022-11-12T04:47:33.364Z,9.430414
2022-11-12T04:48:33.429Z,9.430365
2022-11-12T04:49:35.008Z,9.430364
2022-11-12T04:50:33.333Z,9.430348
2022-11-12T04:51:33.373Z,9.430341
2022-11-12T04:52:34.449Z,9.430328
2022-11-12T04:53:34.681Z,9.430324
2022-11-12T04:54:34.885Z,9.430357
2022-11-12T04:55:35.068Z,9.430362
2022-11-12T04:56:34.452Z,9.430344
2022-11-12T04:57:34.752Z,9.430343
2022-11-12T04:58:34.830Z,9.430339
2022-11-12T04:59:33.396Z,9.430330
2022-11-12T05:00:33.133Z,9.430337
2022-11-12T05:01:33.147Z,9.430315
2022-11-12T05:02:33.073Z,9.430298
2022-11-12T05:03:33.134Z,9.430349
2022-11-12T05:04:33.210Z,9.430323
2022-11-12T05:05:34.945Z,9.430352
2022-11-12T05:06:34.236Z,9.430358
2022-11-12T05:08:54.110Z,9.430327
2022-11-12T05:09:02.463Z,9.430327
2022-11-12T05:10:02.245Z,9.430326
2022-11-12T05:11:01.138Z,9.430318
2022-11-12T05:12:00.783Z,9.430321
2022-11-12T05:13:00.593Z,9.430366
2022-11-12T05:14:00.687Z,9.430298
2022-11-12T05:15:01.233Z,9.430272
2022-11-12T05:16:01.894Z,9.430305
2022-11-12T05:17:02.557Z,9.430337
2022-11-12T05:18:03.405Z,9.430378
2022-11-12T05:19:02.328Z,9.430395
2022-11-12T05:20:02.029Z,9.430394
2022-11-12T05:21:02.410Z,9.430312
2022-11-12T05:22:02.434Z,9.430294
2022-11-12T05:23:08.087Z,9.430386
2022-11-12T05:24:03.130Z,9.430347
2022-11-12T05:25:01.861Z,9.430362
2022-11-12T05:26:00.686Z,9.430363
2022-11-12T05:27:02.452Z,9.430341
2022-11-12T05:28:03.354Z,9.430283
2022-11-12T05:30:20.109Z,9.430278
2022-11-12T05:30:22.139Z,9.430278
2022-11-12T05:31:21.730Z,9.430289
2022-11-12T05:32:21.664Z,9.430288
2022-11-12T05:33:21.636Z,9.430285
2022-11-12T05:34:23.265Z,9.430331
2022-11-12T05:35:23.991Z,9.430310
2022-11-12T05:36:23.134Z,9.430314
2022-11-12T05:37:23.244Z,9.430307
2022-11-12T05:38:23.147Z,9.430306
2022-11-12T05:39:22.042Z,9.430291
2022-11-12T05:40:24.467Z,9.430315
2022-11-12T05:41:23.331Z,9.430337
2022-11-12T05:42:21.879Z,9.430342
2022-11-12T05:43:24.776Z,9.430376
2022-11-12T05:44:22.367Z,9.430352
2022-11-12T05:45:22.318Z,9.430363
2022-11-12T05:47:47.555Z,9.430359
2022-11-12T05:47:54.679Z,9.430359
2022-11-12T05:48:54.423Z,9.430328
2022-11-12T05:49:56.028Z,9.430290
2022-11-12T05:51:12.388Z,9.430306
2022-11-12T05:51:58.759Z,9.430295
2022-11-12T05:52:55.896Z,9.430324
2022-11-12T05:53:54.476Z,9.430307
2022-11-12T05:54:55.299Z,9.430322
2022-11-12T05:55:55.763Z,9.430346
2022-11-12T05:56:55.625Z,9.430326
2022-11-12T05:57:56.128Z,9.430347
2022-11-12T05:58:55.328Z,9.430312
2022-11-12T05:59:55.692Z,9.430299
2022-11-12T06:00:54.188Z,9.430331
2022-11-12T06:01:56.964Z,9.430383
2022-11-12T06:02:55.098Z,9.430368
2022-11-12T06:03:54.487Z,9.430365
2022-11-12T06:06:13.816Z,9.430330
2022-11-12T06:06:15.731Z,9.430330
2022-11-12T06:07:16.034Z,9.430355
2022-11-12T06:08:16.937Z,9.430303
2022-11-12T06:09:17.167Z,9.430451
2022-11-12T06:10:20.285Z,9.430399
2022-11-12T06:11:20.328Z,9.430338
2022-11-12T06:12:17.035Z,9.430341
2022-11-12T06:13:18.217Z,9.430297
2022-11-12T06:14:16.784Z,9.430320
2022-11-12T06:15:17.996Z,9.430391
2022-11-12T06:16:15.481Z,9.430433
2022-11-12T06:18:35.360Z,9.430279
2022-11-12T06:18:37.504Z,9.430279
2022-11-12T06:19:38.583Z,9.430320
2022-11-12T06:20:37.089Z,9.430309
2022-11-12T06:21:38.437Z,9.430347
2022-11-12T06:22:39.982Z,9.430385
2022-11-12T06:23:39.757Z,9.430328
2022-11-12T06:24:37.480Z,9.430407
2022-11-12T06:25:37.207Z,9.430330
2022-11-12T06:26:37.428Z,9.430344
2022-11-12T06:27:37.544Z,9.430352
2022-11-12T06:28:37.078Z,9.430355
2022-11-12T06:29:38.325Z,9.430365
2022-11-12T06:30:37.288Z,9.430421
2022-11-12T06:31:39.785Z,9.430376
2022-11-12T06:34:00.917Z,9.430360
2022-11-12T06:34:07.792Z,9.430360
2022-11-12T06:35:07.700Z,9.430338
2022-11-12T06:36:09.868Z,9.430367
2022-11-12T06:37:10.377Z,9.430333
2022-11-12T06:38:11.351Z,9.430333
2022-11-12T06:39:07.750Z,9.430332
2022-11-12T06:40:09.512Z,9.430252
2022-11-12T06:41:09.149Z,9.430261
2022-11-12T06:42:09.125Z,9.430332
2022-11-12T06:43:08.845Z,9.430289
2022-11-12T06:44:10.970Z,9.430337
2022-11-12T06:45:09.803Z,9.430380
2022-11-12T06:46:07.850Z,9.430182
2022-11-12T06:47:08.157Z,9.430305
2022-11-12T06:48:10.107Z,9.430328
2022-11-12T06:49:10.856Z,9.430334
2022-11-12T06:50:11.026Z,9.430285
2022-11-12T06:51:07.635Z,9.430346
2022-11-12T06:52:12.307Z,9.430361
2022-11-12T06:53:11.427Z,9.430216
2022-11-12T06:54:11.758Z,9.430204
2022-11-12T06:55:08.811Z,9.430344
2022-11-12T06:56:12.928Z,9.430350
2022-11-12T06:57:11.519Z,9.430368
2022-11-12T06:58:07.835Z,9.430318
2022-11-12T06:59:11.454Z,9.430370
2022-11-12T07:00:11.349Z,9.430331
2022-11-12T07:01:12.063Z,9.430361
2022-11-12T07:02:09.752Z,9.430356
2022-11-12T07:03:10.687Z,9.430293
2022-11-12T07:04:11.758Z,9.430318
2022-11-12T07:06:27.401Z,9.430294
2022-11-12T07:06:36.466Z,9.430294
2022-11-12T07:07:35.799Z,9.430296
2022-11-12T07:08:34.547Z,9.430335
2022-11-12T07:09:36.436Z,9.430266
2022-11-12T07:10:36.333Z,9.430334
2022-11-12T07:11:39.811Z,9.430282
2022-11-12T07:12:34.019Z,9.430306
2022-11-12T07:13:33.847Z,9.430366
2022-11-12T07:14:34.411Z,9.430318
2022-11-12T07:15:34.009Z,9.430271
2022-11-12T07:16:33.898Z,9.430266
2022-11-12T07:17:36.643Z,9.430269
2022-11-12T07:18:35.410Z,9.430313
2022-11-12T07:19:34.885Z,9.430261
2022-11-12T07:20:34.417Z,9.430299
2022-11-12T07:21:34.341Z,9.430401
2022-11-12T07:22:36.929Z,9.430293
2022-11-12T07:23:37.910Z,9.430273
2022-11-12T07:24:38.684Z,9.430346
2022-11-12T07:25:35.829Z,9.430326
2022-11-12T07:26:34.360Z,9.430337
2022-11-12T07:27:38.285Z,9.430351
2022-11-12T07:28:34.315Z,9.430285
2022-11-12T07:29:47.612Z,9.430349
2022-11-12T07:30:40.129Z,9.430307
2022-11-12T07:31:37.951Z,9.430321
2022-11-12T07:32:42.819Z,9.430280
2022-11-12T07:33:39.580Z,9.430268
2022-11-12T07:34:35.550Z,9.430296
2022-11-12T07:35:35.453Z,9.430296
2022-11-12T07:36:37.921Z,9.430296
2022-11-12T07:37:34.072Z,9.430283
2022-11-12T07:38:38.573Z,9.430316
2022-11-12T07:39:37.767Z,9.430376
2022-11-12T07:40:37.143Z,9.430359
2022-11-12T07:41:38.072Z,9.430353
2022-11-12T07:42:37.544Z,9.430286
2022-11-12T07:43:37.959Z,9.430267
2022-11-12T07:44:37.340Z,9.430264
2022-11-12T07:45:33.989Z,9.430359
2022-11-12T07:46:35.036Z,9.430340
2022-11-12T07:48:07.141Z,9.430320
2022-11-12T07:48:35.059Z,9.430391
2022-11-12T07:49:33.674Z,9.430375
2022-11-12T07:50:34.313Z,9.430397
2022-11-12T07:51:33.424Z,9.430259
2022-11-12T07:52:33.508Z,9.430299
2022-11-12T07:53:33.405Z,9.430328
2022-11-12T07:54:33.314Z,9.430314
2022-11-12T07:55:33.332Z,9.430280
2022-11-12T07:56:33.430Z,9.430308
2022-11-12T07:57:33.283Z,9.430335
2022-11-12T07:58:33.296Z,9.430297
2022-11-12T07:59:33.260Z,9.430261
2022-11-12T08:00:33.232Z,9.430307
2022-11-12T08:01:33.440Z,9.430319
2022-11-12T08:02:33.216Z,9.430320
2022-11-12T08:03:33.270Z,9.430296
2022-11-12T08:04:33.213Z,9.430293
2022-11-12T08:05:33.169Z,9.430311
2022-11-12T08:06:33.154Z,9.430363
2022-11-12T08:07:33.267Z,9.430367
2022-11-12T08:08:33.183Z,9.430359
2022-11-12T08:09:33.448Z,9.430365
2022-11-12T08:10:33.130Z,9.430317
2022-11-12T08:11:33.125Z,9.430322
2022-11-12T08:12:33.127Z,9.430289
2022-11-12T08:13:33.102Z,9.430366
2022-11-12T08:14:33.115Z,9.430444
2022-11-12T08:15:33.163Z,9.430409
2022-11-12T08:16:33.288Z,9.430412
2022-11-12T08:17:33.238Z,9.430350
2022-11-12T08:18:33.017Z,9.430331
2022-11-12T08:19:33.136Z,9.430311
2022-11-12T08:20:32.996Z,9.430334
2022-11-12T08:21:33.011Z,9.430317
2022-11-12T08:22:32.976Z,9.430302
2022-11-12T08:23:32.980Z,9.430320
2022-11-12T08:24:32.991Z,9.430330
2022-11-12T08:25:32.978Z,9.430333
2022-11-12T08:26:33.070Z,9.430377
2022-11-12T08:27:32.962Z,9.430314
2022-11-12T08:28:32.927Z,9.430295
2022-11-12T08:29:32.903Z,9.430327
2022-11-12T08:30:32.923Z,9.430357
2022-11-12T08:31:32.880Z,9.430268
2022-11-12T08:32:32.879Z,9.430326
2022-11-12T08:33:32.868Z,9.430340
2022-11-12T08:34:32.880Z,9.430338
2022-11-12T08:35:32.958Z,9.430288
2022-11-12T08:36:32.923Z,9.430292
2022-11-12T08:37:32.837Z,9.430326
2022-11-12T08:38:32.837Z,9.430352
2022-11-12T08:39:32.801Z,9.430332
2022-11-12T08:40:32.824Z,9.430348
2022-11-12T08:41:33.564Z,9.430301
2022-11-12T08:42:32.755Z,9.430284
2022-11-12T08:43:32.777Z,9.430283
2022-11-12T08:44:32.770Z,9.430277
2022-11-12T08:45:32.715Z,9.430244
2022-11-12T08:46:32.698Z,9.430240
2022-11-12T08:47:32.767Z,9.430254
2022-11-12T08:48:32.720Z,9.430284
2022-11-12T08:49:32.703Z,9.430335
2022-11-12T08:50:32.676Z,9.430318
2022-11-12T08:51:32.851Z,9.430262
2022-11-12T08:52:32.667Z,9.430280
2022-11-12T08:53:32.640Z,9.430325
2022-11-12T08:54:32.612Z,9.430302
2022-11-12T08:55:32.623Z,9.430326
2022-11-12T08:56:32.613Z,9.430322
2022-11-12T08:57:32.671Z,9.430308
2022-11-12T08:58:32.594Z,9.430301
2022-11-12T08:59:32.562Z,9.430322
2022-11-12T09:00:32.612Z,9.430320
2022-11-12T09:01:32.725Z,9.430347
2022-11-12T09:02:32.614Z,9.430358
2022-11-12T09:03:32.587Z,9.430349
2022-11-12T09:04:32.488Z,9.430326
2022-11-12T09:05:32.530Z,9.430326
2022-11-12T09:06:32.526Z,9.430315
2022-11-12T09:07:49.537Z,9.430282
2022-11-12T09:08:34.531Z,9.430289
2022-11-12T09:09:32.484Z,9.430293
2022-11-12T09:10:32.469Z,9.430290
2022-11-12T09:11:32.532Z,9.430291
2022-11-12T09:12:32.445Z,9.430276
2022-11-12T09:13:32.456Z,9.430295
2022-11-12T09:14:32.461Z,9.430306
2022-11-12T09:15:39.655Z,9.430328
2022-11-12T09:16:34.397Z,9.430289
2022-11-12T09:17:32.385Z,9.430325
2022-11-12T09:18:32.380Z,9.430326
2022-11-12T09:19:32.352Z,9.430330
2022-11-12T09:20:32.332Z,9.430305
2022-11-12T09:21:32.319Z,9.430349
2022-11-12T09:22:32.396Z,9.430386
2022-11-12T09:23:32.426Z,9.430300
2022-11-12T09:24:32.508Z,9.430342
2022-11-12T09:25:32.280Z,9.430272
2022-11-12T09:26:32.280Z,9.430314
2022-11-12T09:27:32.417Z,9.430297
2022-11-12T09:28:32.404Z,9.430301
2022-11-12T09:29:32.300Z,9.430318
2022-11-12T09:30:32.356Z,9.430342
2022-11-12T09:31:32.276Z,9.430331
2022-11-12T09:32:32.228Z,9.430311
2022-11-12T09:33:32.210Z,9.430336
2022-11-12T09:34:32.294Z,9.430332
2022-11-12T09:35:32.393Z,9.430303
2022-11-12T09:36:37.154Z,9.430293
2022-11-12T09:37:34.190Z,9.430290
2022-11-12T09:38:33.065Z,9.430259
2022-11-12T09:39:32.257Z,9.430316
2022-11-12T09:40:32.121Z,9.430326
2022-11-12T09:41:32.129Z,9.430319
2022-11-12T09:42:32.577Z,9.430296
2022-11-12T09:43:32.151Z,9.430329
2022-11-12T09:44:36.694Z,9.430321
2022-11-12T09:45:33.069Z,9.430298
2022-11-12T09:46:32.106Z,9.430294
2022-11-12T09:47:32.083Z,9.430263
2022-11-12T09:52:29.123Z,9.430313
2022-11-12T09:53:57.581Z,9.430313
2022-11-12T09:53:59.922Z,9.430313
2022-11-12T10:21:46.816Z,9.430347
2022-11-12T10:22:44.420Z,9.430347
2022-11-12T10:24:33.314Z,9.430314
2022-11-12T10:24:37.715Z,9.430314
2022-11-12T10:26:59.959Z,9.430318
2022-11-12T10:28:28.230Z,9.430318
2022-11-12T10:32:12.502Z,9.430318
2022-11-12T10:42:14.761Z,9.430379
2022-11-12T10:44:22.314Z,9.430339
2022-11-12T10:51:13.029Z,9.430346
2022-11-12T10:59:45.722Z,9.430356
2022-11-12T11:05:54.546Z,9.430356
2022-11-12T11:05:59.002Z,9.430356
2022-11-12T11:06:58.546Z,9.430328
2022-11-12T11:15:43.853Z,9.430337
2022-11-12T11:16:41.449Z,9.430331
2022-11-12T11:17:39.141Z,9.430337
2022-11-12T11:18:40.806Z,9.430366
2022-11-12T11:19:43.118Z,9.430353
2022-11-12T11:20:45.250Z,9.430304
2022-11-12T11:21:42.442Z,9.430314
2022-11-12T11:22:39.794Z,9.430339
2022-11-12T11:23:38.785Z,9.430326
2022-11-12T11:24:38.817Z,9.430333
2022-11-12T11:25:38.789Z,9.430340
2022-11-12T11:26:39.837Z,9.430351
2022-11-12T11:27:38.770Z,9.430333
2022-11-12T11:28:38.818Z,9.430323
2022-11-12T11:29:38.749Z,9.430338
2022-11-12T11:30:38.757Z,9.430334
2022-11-12T11:31:38.855Z,9.430328
2022-11-12T11:32:38.737Z,9.430341
2022-11-12T11:33:38.700Z,9.430341
2022-11-12T11:34:38.666Z,9.430324
2022-11-12T11:35:38.685Z,9.430349
2022-11-12T11:36:38.631Z,9.430344
2022-11-12T11:37:38.722Z,9.430367
2022-11-12T11:38:38.711Z,9.430348
2022-11-12T11:39:38.593Z,9.430358
2022-11-12T11:40:38.600Z,9.430351
2022-11-12T11:41:38.593Z,9.430346
2022-11-12T11:42:38.629Z,9.430371
2022-11-12T11:43:38.609Z,9.430374
2022-11-12T11:44:38.573Z,9.430364
2022-11-12T11:45:38.534Z,9.430356
2022-11-12T11:46:38.528Z,9.430332
2022-11-12T11:47:59.538Z,9.430352
2022-11-12T11:48:40.525Z,9.430381
2022-11-12T11:49:38.533Z,9.430326
2022-11-12T11:50:38.486Z,9.430346
2022-11-12T11:51:38.650Z,9.430376
2022-11-12T11:52:38.478Z,9.430365
2022-11-12T11:53:38.441Z,9.430324
2022-11-12T11:54:38.426Z,9.430338
2022-11-12T11:55:38.450Z,9.430345
2022-11-12T11:56:38.378Z,9.430392
2022-11-12T11:57:38.472Z,9.430374
2022-11-12T11:58:38.386Z,9.430336
2022-11-12T11:59:38.379Z,9.430337
2022-11-12T12:00:38.361Z,9.430342
2022-11-12T12:01:38.350Z,9.430362
2022-11-12T12:02:38.318Z,9.430368
2022-11-12T12:03:38.508Z,9.430386
2022-11-12T12:04:38.376Z,9.430354
2022-11-12T12:05:38.328Z,9.430336
2022-11-12T12:06:38.365Z,9.430318
2022-11-12T12:07:38.357Z,9.430331
2022-11-12T12:08:38.289Z,9.430326
2022-11-12T12:09:38.299Z,9.430344
2022-11-12T12:11:06.450Z,9.430383
2022-11-12T12:11:42.943Z,9.430419
2022-11-12T12:12:38.254Z,9.430426
2022-11-12T12:13:38.172Z,9.430313
2022-11-12T12:14:38.151Z,9.430363
2022-11-12T12:15:38.631Z,9.430377
2022-11-12T12:16:38.156Z,9.430433
2022-11-12T12:17:38.140Z,9.430417
2022-11-12T12:18:38.118Z,9.430393
2022-11-12T12:19:38.180Z,9.430412
2022-11-12T12:20:38.084Z,9.430405
2022-11-12T12:21:38.112Z,9.430374
2022-11-12T12:22:38.126Z,9.430349
2022-11-12T12:23:38.063Z,9.430358
2022-11-12T12:24:38.056Z,9.430364
2022-11-12T12:25:38.076Z,9.430360
2022-11-12T12:26:38.043Z,9.430374
2022-11-12T12:27:38.043Z,9.430401
2022-11-12T12:28:38.028Z,9.430386
2022-11-12T12:29:38.014Z,9.430379
2022-11-12T12:30:37.993Z,9.430402
2022-11-12T12:31:37.992Z,9.430404
2022-11-12T12:32:37.979Z,9.430389
2022-11-12T12:33:37.958Z,9.430367
2022-11-12T12:34:37.932Z,9.430346
2022-11-12T12:35:37.988Z,9.430370
2022-11-12T12:36:37.908Z,9.430348
2022-11-12T12:37:37.879Z,9.430364
2022-11-12T12:38:37.891Z,9.430323
2022-11-12T12:39:41.306Z,9.430347
2022-11-12T12:40:39.527Z,9.430366
2022-11-12T12:41:37.877Z,9.430350
2022-11-12T12:42:37.945Z,9.430337
2022-11-12T12:43:37.992Z,9.430334
2022-11-12T12:44:37.917Z,9.430366
2022-11-12T12:45:37.845Z,9.430345
2022-11-12T12:46:37.829Z,9.430395
2022-11-12T12:47:37.760Z,9.430381
2022-11-12T12:48:38.168Z,9.430327
2022-11-12T12:49:37.842Z,9.430346
2022-11-12T12:50:37.784Z,9.430348
2022-11-12T12:51:37.812Z,9.430322
2022-11-12T12:52:37.737Z,9.430306
2022-11-12T12:53:38.888Z,9.430331
2022-11-12T12:54:37.776Z,9.430340
2022-11-12T12:55:38.552Z,9.430375
2022-11-12T12:56:37.758Z,9.430364
2022-11-12T12:57:37.737Z,9.430330
2022-11-12T12:58:38.009Z,9.430305
2022-11-12T12:59:37.727Z,9.430327
2022-11-12T13:00:37.746Z,9.430358
2022-11-12T13:01:37.724Z,9.430363
2022-11-12T13:02:37.663Z,9.430406
2022-11-12T13:03:37.610Z,9.430409
2022-11-12T13:04:37.589Z,9.430327
2022-11-12T13:05:37.584Z,9.430275
2022-11-12T13:06:37.719Z,9.430366
2022-11-12T13:07:37.751Z,9.430354
2022-11-12T13:08:37.605Z,9.430392
2022-11-12T13:09:37.628Z,9.430378
2022-11-12T13:10:38.349Z,9.430325
2022-11-12T13:11:37.658Z,9.430397
2022-11-12T13:12:37.520Z,9.430380
2022-11-12T13:13:37.523Z,9.430426
2022-11-12T13:14:38.480Z,9.430404
2022-11-12T13:15:37.485Z,9.430375
2022-11-12T13:21:59.343Z,9.430390
2022-11-12T13:22:59.563Z,9.430457
2022-11-12T13:23:59.558Z,9.430480
2022-11-12T13:24:59.350Z,9.430476
2022-11-12T13:25:59.271Z,9.430409
2022-11-12T13:26:59.238Z,9.430366
2022-11-12T13:27:59.258Z,9.430355
2022-11-12T13:29:00.223Z,9.430370
2022-11-12T13:29:59.267Z,9.430397
2022-11-12T13:30:59.300Z,9.430397
2022-11-12T13:31:59.243Z,9.430349
2022-11-12T13:32:59.261Z,9.430335
2022-11-12T13:33:59.198Z,9.430346
2022-11-12T13:34:59.158Z,9.430346
2022-11-12T13:35:59.163Z,9.430383
2022-11-12T13:36:59.326Z,9.430355
2022-11-12T13:37:59.203Z,9.430387
2022-11-12T13:39:01.210Z,9.430385
2022-11-12T13:40:00.135Z,9.430367
2022-11-12T13:40:59.145Z,9.430343
2022-11-12T13:41:59.373Z,9.430371
2022-11-12T13:42:59.064Z,9.430371
2022-11-12T13:43:59.153Z,9.430388
2022-11-12T13:44:59.139Z,9.430386
2022-11-12T13:45:59.048Z,9.430409
2022-11-12T13:46:59.055Z,9.430372
2022-11-12T13:47:59.080Z,9.430506
2022-11-12T13:48:59.157Z,9.430430
2022-11-12T13:49:59.035Z,9.430387
2022-11-12T13:50:59.093Z,9.430377
2022-11-12T13:51:58.946Z,9.430352
2022-11-12T13:52:59.041Z,9.430336
2022-11-12T13:53:58.974Z,9.430343
2022-11-12T13:54:59.126Z,9.430345
2022-11-12T13:55:59.262Z,9.430347
2022-11-12T13:56:58.897Z,9.430355
2022-11-12T13:57:58.913Z,9.430364
2022-11-12T13:58:58.890Z,9.430371
2022-11-12T13:59:58.923Z,9.430355
2022-11-12T14:00:58.914Z,9.430351
2022-11-12T14:01:58.974Z,9.430356
2022-11-12T14:02:58.836Z,9.430363
2022-11-12T14:03:58.810Z,9.430394
2022-11-12T14:04:58.818Z,9.430372
2022-11-12T14:05:58.817Z,9.430377
2022-11-12T14:06:58.878Z,9.430338
2022-11-12T14:07:58.760Z,9.430361
2022-11-12T14:08:58.787Z,9.430387
2022-11-12T14:09:58.795Z,9.430371
2022-11-12T14:10:58.813Z,9.430372
2022-11-12T14:11:59.586Z,9.430367
2022-11-12T14:12:58.691Z,9.430366
2022-11-12T14:13:58.725Z,9.430398
2022-11-12T14:14:58.702Z,9.430394